Ashburnham, Massachusetts
Current Conditions -  °F | °C
As of 4:52 PM on Friday 24 Oct 2014 (Local Time) from KFIT Reporting Station
Overcast Overcast  
Wind Chill: 52°   Ceiling: 2400
Heat Index: 52°   Visibility: 10mi
Dew Point: 42°   Wind: 10mph
Humidity: 69%   Direction: 300°WNW
Pressure: 29.73"   Gusts: NA
Location:  42.64°N, 71.91°W
Report Text: KFIT 242052Z AUTO 30009KT 10SM OVC024 11/06 A2973 RMK AO2 SLP067 T01110056 53003
Loading
Personal Weather Stations






























Interactive Weather Map New forecast layout! Learn more

10-Day Weather Forecast

Advertisements
Track Severe Weather on mobile